메인 페이지
METAR-TAF:

METAR-TAF

공항 :

오덴세, 덴마크

위도: 55-29N, 경도: 010-20E, 고도: 17m

현재 날씨관측

예보는 28분 전, 08:50시(UTC)에 발표되었습니다.
7kt남동풍과 남서풍을 오가는
온도 19°C
습도 88%
기압 1013 hPa
시정 10km 이상
고도 2400ft 상공 구름 조금
고도 3600ft 상공 구름 많음

METAR: EKOD 230850Z 18007KT 130V220 9999 FEW024 BKN036 19/17 Q1013

시각: 11:18 (09:18 UTC)

예보

예보는 3 시간 18분 전, 06:00시(UTC)에 발표되었습니다.
예보 대상 시간: 23일 06시부터 23일 15시까지 (UTC)
8kt
시정 10km 이상
고도 3000ft 상공 구름 많음
일시적
23일 06시부터 23일 10시까지 (UTC)
시정: 4000m
고도 800ft 상공 구름 많음
고도 2000ft 상공 구름 보통, 적란운.
소나기
확률 40% :
일시적
23일 07시부터 23일 15시까지 (UTC)
뇌우, 비
일시적
23일 10시부터 23일 15시까지 (UTC)
시정: 4000m
고도 1200ft 상공 구름 많음
고도 2000ft 상공 구름 보통, 적란운.
소나기,

TAF: EKOD 230600Z 2306/2315 18008KT 9999 BKN030 TEMPO 2306/2310 4000 SHRA BKN008 SCT020CB PROB40 TEMPO 2307/2315 TSRA TEMPO 2310/2315 4000 SHRA BKN012 SCT020CB

4,000개 이상의 공항 관측 자료 및 예보 (METAR 및 TAF 보고).

지도상에서 검색 가능한 기상관측소가 노란 점과 빨간 점으로 표시되어 있습니다.

기상관측소 명을 보려면 표시 위로 마우스를 이동하세요.

날씨 관측과 예보를 보려면 클릭하세요.

지도 변경 : 확대하려면 엑스 표시가 있는 녹색 버튼, 축소하려면 빼기 표시가 있는 녹색 버튼, 다음 페이지의 지도를 보려면 녹색 화살표를 클릭하세요.


METAR-TAF: